createdAt,value
2022-08-25T00:02:41.726Z,96.05
2022-08-25T00:06:17.866Z,96.14
2022-08-25T00:09:40.010Z,95.85
2022-08-25T00:13:04.005Z,95.84
2022-08-25T00:16:26.411Z,95.82
2022-08-25T00:19:48.513Z,95.18
2022-08-25T00:23:10.546Z,95.50
2022-08-25T00:26:32.908Z,96.20
2022-08-25T00:29:56.104Z,96.41
2022-08-25T00:33:19.213Z,96.23
2022-08-25T00:36:41.424Z,96.25
2022-08-25T00:40:03.801Z,95.83
2022-08-25T00:43:27.849Z,95.78
2022-08-25T00:46:53.728Z,95.98
2022-08-25T00:50:17.399Z,96.04
2022-08-25T00:53:41.112Z,96.76
2022-08-25T00:57:05.627Z,96.86
2022-08-25T01:00:30.900Z,96.46
2022-08-25T01:03:54.225Z,96.02
2022-08-25T01:07:18.839Z,96.13
2022-08-25T01:10:44.225Z,95.85
2022-08-25T01:14:07.541Z,95.30
2022-08-25T01:17:36.423Z,94.67
2022-08-25T01:21:01.037Z,94.52
2022-08-25T01:24:31.553Z,94.23
2022-08-25T01:27:53.957Z,94.12
2022-08-25T01:31:23.701Z,93.91
2022-08-25T01:34:47.616Z,94.08
2022-08-25T01:38:12.208Z,94.26
2022-08-25T01:41:42.212Z,94.24
2022-08-25T01:45:04.560Z,94.53
2022-08-25T01:48:26.908Z,93.78
2022-08-25T01:51:52.773Z,93.89
2022-08-25T01:55:16.209Z,93.92
2022-08-25T01:58:41.976Z,94.50
2022-08-25T02:02:04.843Z,94.27
2022-08-25T02:05:27.678Z,94.22
2022-08-25T02:08:52.728Z,93.38
2022-08-25T02:12:16.014Z,93.96
2022-08-25T02:15:43.263Z,94.16
2022-08-25T02:19:07.491Z,93.94
2022-08-25T02:22:29.257Z,93.80
2022-08-25T02:25:51.010Z,93.99
2022-08-25T02:29:14.320Z,93.58
2022-08-25T02:32:36.121Z,93.71
2022-08-25T02:35:59.868Z,93.95
2022-08-25T02:39:21.804Z,93.14
2022-08-25T02:42:43.717Z,93.29
2022-08-25T02:46:07.333Z,93.43
2022-08-25T02:49:30.100Z,93.23
2022-08-25T02:52:52.497Z,92.44
2022-08-25T02:56:16.456Z,92.29
2022-08-25T02:59:39.317Z,92.41
2022-08-25T03:03:02.900Z,92.42
2022-08-25T03:06:25.631Z,92.00
2022-08-25T03:09:48.212Z,92.41
2022-08-25T03:13:10.086Z,92.15
2022-08-25T03:16:32.002Z,92.24
2022-08-25T03:19:56.143Z,91.34
2022-08-25T03:23:19.029Z,91.58
2022-08-25T03:26:56.405Z,91.45
2022-08-25T03:30:18.404Z,91.34
2022-08-25T03:33:40.452Z,90.73
2022-08-25T03:37:03.870Z,91.39
2022-08-25T03:40:26.465Z,90.67
2022-08-25T03:43:48.965Z,91.06
2022-08-25T03:47:10.872Z,90.83
2022-08-25T03:50:33.005Z,91.51
2022-08-25T03:53:56.916Z,91.29
2022-08-25T03:57:20.857Z,91.31
2022-08-25T04:00:43.134Z,91.35
2022-08-25T04:04:06.688Z,91.39
2022-08-25T04:07:28.926Z,91.57
2022-08-25T04:10:52.199Z,90.76
2022-08-25T04:14:16.524Z,91.32
2022-08-25T04:17:41.012Z,90.97
2022-08-25T04:21:09.244Z,90.96
2022-08-25T04:24:31.533Z,90.98
2022-08-25T04:27:55.315Z,90.90
2022-08-25T04:31:18.886Z,90.95
2022-08-25T04:34:41.476Z,90.61
2022-08-25T04:38:04.484Z,90.46
2022-08-25T04:41:28.736Z,90.55
2022-08-25T04:44:52.320Z,90.27
2022-08-25T04:48:14.604Z,89.86
2022-08-25T04:51:40.162Z,90.04
2022-08-25T04:55:01.831Z,90.05
2022-08-25T04:58:23.685Z,89.74
2022-08-25T05:01:50.201Z,89.97
2022-08-25T05:05:14.247Z,89.93
2022-08-25T05:08:36.896Z,89.34
2022-08-25T05:11:59.110Z,88.82
2022-08-25T05:15:38.506Z,88.95
2022-08-25T05:19:02.132Z,88.81
2022-08-25T05:22:24.173Z,88.56
2022-08-25T05:25:45.847Z,88.97
2022-08-25T05:29:10.977Z,88.77
2022-08-25T05:32:32.814Z,88.51
2022-08-25T05:35:56.745Z,88.77
2022-08-25T05:39:19.067Z,88.36
2022-08-25T05:42:40.939Z,88.13
2022-08-25T05:46:02.784Z,88.30
2022-08-25T05:49:24.704Z,87.96
2022-08-25T05:52:48.017Z,88.13
2022-08-25T05:56:10.495Z,87.28
2022-08-25T05:59:32.493Z,86.48
2022-08-25T06:02:54.259Z,85.65
2022-08-25T06:06:17.170Z,86.01
2022-08-25T06:09:41.348Z,86.06
2022-08-25T06:13:06.557Z,85.53
2022-08-25T06:16:28.577Z,85.56
2022-08-25T06:19:50.440Z,85.45
2022-08-25T06:23:13.093Z,84.63
2022-08-25T06:26:36.918Z,83.91
2022-08-25T06:29:59.018Z,84.42
2022-08-25T06:33:29.455Z,84.07
2022-08-25T06:36:51.720Z,83.23
2022-08-25T06:40:14.825Z,82.62
2022-08-25T06:43:38.024Z,81.59
2022-08-25T06:47:00.051Z,80.21
2022-08-25T06:50:22.129Z,81.28
2022-08-25T06:53:44.419Z,80.46
2022-08-25T06:57:07.378Z,78.18
2022-08-25T07:00:32.348Z,78.69
2022-08-25T07:03:57.956Z,78.34
2022-08-25T07:07:19.721Z,77.00
2022-08-25T07:10:41.481Z,77.46
2022-08-25T07:14:12.996Z,77.45
2022-08-25T07:17:36.581Z,77.33
2022-08-25T07:20:59.309Z,76.60
2022-08-25T07:24:21.827Z,77.55
2022-08-25T07:27:43.729Z,76.80
2022-08-25T07:31:06.007Z,76.29
2022-08-25T07:35:05.121Z,77.05
2022-08-25T07:38:27.129Z,76.52
2022-08-25T07:41:52.166Z,77.18
2022-08-25T07:45:17.321Z,76.94
2022-08-25T07:48:43.196Z,77.18
2022-08-25T07:52:16.604Z,76.75
2022-08-25T07:55:39.552Z,76.50
2022-08-25T07:59:01.401Z,76.60
2022-08-25T08:02:24.792Z,76.57
2022-08-25T08:05:46.898Z,76.72
2022-08-25T08:09:13.991Z,75.93
2022-08-25T08:12:36.727Z,75.15
2022-08-25T08:15:58.995Z,75.06
2022-08-25T08:19:23.138Z,74.76
2022-08-25T08:22:46.321Z,73.54
2022-08-25T08:26:10.346Z,72.89
2022-08-25T08:29:32.721Z,72.91
2022-08-25T08:33:11.837Z,72.62
2022-08-25T08:36:34.683Z,72.13
2022-08-25T08:39:56.742Z,72.64
2022-08-25T08:43:21.240Z,71.58
2022-08-25T08:46:57.135Z,71.35
2022-08-25T08:50:30.830Z,71.04
2022-08-25T08:53:58.404Z,68.50
2022-08-25T08:57:26.652Z,69.30
2022-08-25T09:00:55.862Z,69.07
2022-08-25T09:04:24.682Z,69.06
2022-08-25T09:07:53.376Z,69.22
2022-08-25T09:11:30.548Z,67.22
2022-08-25T09:15:12.277Z,66.60
2022-08-25T09:18:50.896Z,65.69
2022-08-25T09:22:36.018Z,65.51
2022-08-25T09:26:04.800Z,65.58
2022-08-25T09:29:34.165Z,63.31
2022-08-25T09:33:05.190Z,65.15
2022-08-25T09:36:30.136Z,64.33
2022-08-25T09:39:53.367Z,65.15
2022-08-25T09:43:23.896Z,64.67
2022-08-25T09:47:02.027Z,62.65
2022-08-25T09:50:24.061Z,62.22
2022-08-25T09:53:51.871Z,62.72
2022-08-25T09:57:29.927Z,60.99
2022-08-25T10:01:16.579Z,61.37
2022-08-25T10:04:40.890Z,61.23
2022-08-25T10:08:11.558Z,61.99
2022-08-25T10:11:41.913Z,61.40
2022-08-25T10:15:29.180Z,60.38
2022-08-25T10:19:07.301Z,61.33
2022-08-25T10:22:32.655Z,60.15
2022-08-25T10:25:59.151Z,61.58
2022-08-25T10:29:40.867Z,60.15
2022-08-25T10:33:13.496Z,61.24
2022-08-25T10:36:49.053Z,60.54
2022-08-25T10:40:20.992Z,61.13
2022-08-25T10:43:51.061Z,60.15
2022-08-25T10:47:40.341Z,59.53
2022-08-25T10:51:18.671Z,60.78
2022-08-25T10:54:48.081Z,61.25
2022-08-25T10:58:24.433Z,58.17
2022-08-25T11:02:11.514Z,57.00
2022-08-25T11:05:40.478Z,58.03
2022-08-25T11:09:07.053Z,59.98
2022-08-25T11:12:33.589Z,58.88
2022-08-25T11:16:16.474Z,58.06
2022-08-25T11:19:44.092Z,59.30
2022-08-25T11:23:17.140Z,57.98
2022-08-25T11:26:43.678Z,56.94
2022-08-25T11:30:08.744Z,58.96
2022-08-25T11:33:33.293Z,58.88
2022-08-25T11:37:01.185Z,57.06
2022-08-25T11:40:45.727Z,57.68
2022-08-25T11:44:51.828Z,56.45
2022-08-25T11:48:26.686Z,56.42
2022-08-25T11:51:51.785Z,57.65
2022-08-25T11:55:15.904Z,57.99
2022-08-25T11:58:46.015Z,57.30
2022-08-25T12:02:08.275Z,57.70
2022-08-25T12:05:53.471Z,56.25
2022-08-25T12:09:23.291Z,57.52
2022-08-25T12:13:23.241Z,57.49
2022-08-25T12:17:06.386Z,56.26
2022-08-25T12:21:07.279Z,55.75
2022-08-25T12:24:50.860Z,56.36
2022-08-25T12:28:48.202Z,55.55
2022-08-25T12:32:37.159Z,54.90
2022-08-25T12:36:01.177Z,56.46
2022-08-25T12:39:30.502Z,55.77
2022-08-25T12:43:04.863Z,55.28
2022-08-25T12:46:40.297Z,54.56
2022-08-25T12:50:40.150Z,54.59
2022-08-25T12:54:19.001Z,54.22
2022-08-25T12:57:48.537Z,55.92
2022-08-25T13:01:29.318Z,55.61
2022-08-25T13:05:22.802Z,55.66
2022-08-25T13:09:29.314Z,55.32
2022-08-25T13:12:57.018Z,55.33
2022-08-25T13:16:23.717Z,55.27
2022-08-25T13:19:48.847Z,55.03
2022-08-25T13:23:10.944Z,54.87
2022-08-25T13:26:47.121Z,55.44
2022-08-25T13:30:25.023Z,54.18
2022-08-25T13:33:55.203Z,53.96
2022-08-25T13:37:33.401Z,54.90
2022-08-25T13:41:03.821Z,54.33
2022-08-25T13:44:36.377Z,55.20
2022-08-25T13:47:58.430Z,55.67
2022-08-25T13:51:24.525Z,54.93
2022-08-25T13:54:58.476Z,55.03
2022-08-25T13:58:24.379Z,54.71
2022-08-25T14:01:50.329Z,54.46
2022-08-25T14:05:14.477Z,52.84
2022-08-25T14:08:38.636Z,53.81
2022-08-25T14:12:00.463Z,54.64
2022-08-25T14:15:34.019Z,54.28
2022-08-25T14:19:00.894Z,55.03
2022-08-25T14:22:23.678Z,55.11
2022-08-25T14:25:47.670Z,54.43
2022-08-25T14:29:09.871Z,54.28
2022-08-25T14:32:32.111Z,54.31
2022-08-25T14:35:59.202Z,53.92
2022-08-25T14:39:22.004Z,53.71
2022-08-25T14:42:43.873Z,53.81
2022-08-25T14:46:20.177Z,51.84
2022-08-25T14:49:45.946Z,52.86
2022-08-25T14:53:09.705Z,54.28
2022-08-25T14:56:32.268Z,54.64
2022-08-25T14:59:54.585Z,55.78
2022-08-25T15:03:19.462Z,55.40
2022-08-25T15:06:43.779Z,56.33
2022-08-25T15:10:07.941Z,56.81
2022-08-25T15:13:29.960Z,57.19
2022-08-25T15:16:56.025Z,57.64
2022-08-25T15:20:17.619Z,58.17
2022-08-25T15:23:39.760Z,58.31
2022-08-25T15:27:09.981Z,58.58
2022-08-25T15:30:32.890Z,58.47
2022-08-25T15:33:55.040Z,58.70
2022-08-25T15:37:17.974Z,59.17
2022-08-25T15:40:40.374Z,58.65
2022-08-25T15:44:04.303Z,58.50
2022-08-25T15:47:26.340Z,58.84
2022-08-25T15:50:56.110Z,59.14
2022-08-25T15:54:18.246Z,58.62
2022-08-25T15:57:41.181Z,58.13
2022-08-25T16:01:06.042Z,57.77
2022-08-25T16:04:31.498Z,56.58
2022-08-25T16:07:53.651Z,56.81
2022-08-25T16:11:21.535Z,57.06
2022-08-25T16:14:43.568Z,57.55
2022-08-25T16:18:08.217Z,58.04
2022-08-25T16:21:35.498Z,57.91
2022-08-25T16:25:04.783Z,58.52
2022-08-25T16:28:28.515Z,58.06
2022-08-25T16:31:53.177Z,58.68
2022-08-25T16:35:17.053Z,58.91
2022-08-25T16:38:40.768Z,58.77
2022-08-25T16:42:02.999Z,59.35
2022-08-25T16:45:25.134Z,59.48
2022-08-25T16:48:48.864Z,59.23
2022-08-25T16:52:28.599Z,60.26
2022-08-25T16:55:50.979Z,60.32
2022-08-25T16:59:14.280Z,61.05
2022-08-25T17:02:36.524Z,61.03
2022-08-25T17:06:00.958Z,61.40
2022-08-25T17:09:24.377Z,61.58
2022-08-25T17:12:46.303Z,61.96
2022-08-25T17:16:08.603Z,62.09
2022-08-25T17:19:30.513Z,62.67
2022-08-25T17:22:53.040Z,62.69
2022-08-25T17:26:17.846Z,63.52
2022-08-25T17:29:40.977Z,63.65
2022-08-25T17:33:03.204Z,64.01
2022-08-25T17:36:26.923Z,64.16
2022-08-25T17:39:50.577Z,64.93
2022-08-25T17:43:20.341Z,65.65
2022-08-25T17:46:47.530Z,65.71
2022-08-25T17:50:10.561Z,66.10
2022-08-25T17:53:34.891Z,66.23
2022-08-25T17:56:56.923Z,66.33
2022-08-25T18:00:22.190Z,67.09
2022-08-25T18:03:44.455Z,67.53
2022-08-25T18:07:08.777Z,68.05
2022-08-25T18:10:31.834Z,68.61
2022-08-25T18:13:54.918Z,68.34
2022-08-25T18:17:21.862Z,68.49
2022-08-25T18:20:45.819Z,68.64
2022-08-25T18:24:09.283Z,69.33
2022-08-25T18:27:31.313Z,69.83
2022-08-25T18:30:53.278Z,70.35
2022-08-25T18:34:16.616Z,70.81
2022-08-25T18:37:58.475Z,70.60
2022-08-25T18:41:21.560Z,71.38
2022-08-25T18:44:46.688Z,71.17
2022-08-25T18:48:12.397Z,70.90
2022-08-25T18:51:38.201Z,71.38
2022-08-25T18:55:01.240Z,71.40
2022-08-25T18:58:24.612Z,72.41
2022-08-25T19:01:47.475Z,72.09
2022-08-25T19:05:10.756Z,73.16
2022-08-25T19:08:34.312Z,72.77
2022-08-25T19:11:57.247Z,72.97
2022-08-25T19:15:19.405Z,73.23
2022-08-25T19:18:46.929Z,73.40
2022-08-25T19:22:31.775Z,73.48
2022-08-25T19:25:53.023Z,74.31
2022-08-25T19:29:18.483Z,74.37
2022-08-25T19:32:42.757Z,74.69
2022-08-25T19:36:06.456Z,74.76
2022-08-25T19:39:30.810Z,75.10
2022-08-25T19:42:55.903Z,76.40
2022-08-25T19:46:19.634Z,75.70
2022-08-25T19:49:41.856Z,77.01
2022-08-25T19:53:03.701Z,75.71
2022-08-25T19:56:25.554Z,76.89
2022-08-25T19:59:49.639Z,76.48
2022-08-25T20:03:13.548Z,76.07
2022-08-25T20:06:36.918Z,76.65
2022-08-25T20:10:00.334Z,76.48
2022-08-25T20:13:22.258Z,77.16
2022-08-25T20:16:47.832Z,77.25
2022-08-25T20:20:16.938Z,77.08
2022-08-25T20:23:56.251Z,77.39
2022-08-25T20:27:20.416Z,76.82
2022-08-25T20:30:45.511Z,77.02
2022-08-25T20:34:08.987Z,77.75
2022-08-25T20:37:30.939Z,77.55
2022-08-25T20:40:53.067Z,77.92
2022-08-25T20:44:15.471Z,77.51
2022-08-25T20:47:37.561Z,77.58
2022-08-25T20:51:05.030Z,77.91
2022-08-25T20:54:27.384Z,77.66
2022-08-25T20:57:50.143Z,77.69
2022-08-25T21:01:20.363Z,77.81
2022-08-25T21:04:50.006Z,78.30
2022-08-25T21:08:14.712Z,77.97
2022-08-25T21:11:38.215Z,77.82
2022-08-25T21:15:02.139Z,78.48
2022-08-25T21:18:26.670Z,78.10
2022-08-25T21:21:52.403Z,78.37
2022-08-25T21:25:15.955Z,78.60
2022-08-25T21:28:37.932Z,78.46
2022-08-25T21:32:09.843Z,78.49
2022-08-25T21:35:31.994Z,78.84
2022-08-25T21:38:55.093Z,79.01
2022-08-25T21:42:18.631Z,79.66
2022-08-25T21:45:44.493Z,79.33
2022-08-25T21:49:10.332Z,79.05
2022-08-25T21:52:32.425Z,78.84
2022-08-25T21:55:55.596Z,78.95
2022-08-25T21:59:24.149Z,78.91
2022-08-25T22:02:47.104Z,79.40
2022-08-25T22:06:10.431Z,78.95
2022-08-25T22:09:34.222Z,79.32
2022-08-25T22:12:56.208Z,79.29
2022-08-25T22:16:21.469Z,79.16
2022-08-25T22:19:43.850Z,79.28
2022-08-25T22:23:06.234Z,79.43
2022-08-25T22:26:30.290Z,79.52
2022-08-25T22:29:53.547Z,79.13
2022-08-25T22:33:17.141Z,79.04
2022-08-25T22:36:40.431Z,79.44
2022-08-25T22:40:02.975Z,79.23
2022-08-25T22:43:25.270Z,79.27
2022-08-25T22:46:47.184Z,79.39
2022-08-25T22:50:11.406Z,79.87
2022-08-25T22:53:33.231Z,79.61
2022-08-25T22:56:55.466Z,79.50
2022-08-25T23:00:19.161Z,79.32
2022-08-25T23:03:44.507Z,79.56
2022-08-25T23:07:08.276Z,79.38
2022-08-25T23:10:32.678Z,79.36
2022-08-25T23:13:56.343Z,79.46
2022-08-25T23:17:18.992Z,79.34
2022-08-25T23:20:58.530Z,79.29
2022-08-25T23:24:29.300Z,79.53
2022-08-25T23:27:52.227Z,79.29
2022-08-25T23:31:16.125Z,79.54
2022-08-25T23:34:39.873Z,79.26
2022-08-25T23:38:01.987Z,79.58
2022-08-25T23:41:26.621Z,79.65
2022-08-25T23:44:49.350Z,80.08
2022-08-25T23:48:12.646Z,79.79
2022-08-25T23:51:41.695Z,80.07
2022-08-25T23:55:03.616Z,80.63
2022-08-25T23:58:28.551Z,80.35
